Time;durP1;ratioP1;P1;durP2;ratioP2;P2;SDS_P1;SDS_P2;PMS_P1;PMS_P2;Temp;Humidity;BMP_temperature;BMP_pressure;BME280_temperature;BME280_humidity;BME280_pressure;Samples;Min_cycle;Max_cycle;Signal;HPM_P1;HPM_P2
2023/12/02 00:01:04;;;;;;;103.50;44.53;;;;;;;-141.97;100.00;46081.69;5010720;28;20491;-85
2023/12/02 00:03:29;;;;;;;100.47;38.17;;;;;;;-141.97;100.00;46075.94;5016953;28;20258;-86
2023/12/02 00:05:55;;;;;;;102.93;43.17;;;;;;;-141.97;100.00;46266.13;5039204;28;20214;-86
2023/12/02 00:08:22;;;;;;;99.03;43.13;;;;;;;-141.97;100.00;46302.66;5039100;28;20179;-84
2023/12/02 00:10:47;;;;;;;109.17;41.10;;;;;;;-141.97;100.00;46464.03;5031709;28;20166;-85
2023/12/02 00:13:13;;;;;;;103.70;43.20;;;;;;;-141.97;100.00;46723.44;5021086;28;20397;-85
2023/12/02 00:15:38;;;;;;;91.63;42.43;;;;;;;-141.97;100.00;46408.31;5017651;28;20308;-84
2023/12/02 00:18:03;;;;;;;87.60;37.43;;;;;;;-141.97;100.00;46275.75;5015279;28;20163;-85
2023/12/02 00:20:29;;;;;;;103.50;42.23;;;;;;;-141.97;100.00;46485.19;5015344;28;20178;-85
2023/12/02 00:22:54;;;;;;;98.33;42.30;;;;;;;-141.97;100.00;46579.31;5014677;28;20273;-85
2023/12/02 00:25:20;;;;;;;112.20;48.40;;;;;;;-141.97;100.00;46200.81;5015010;28;20174;-85
2023/12/02 00:27:45;;;;;;;120.00;49.80;;;;;;;-141.97;100.00;46569.72;5013389;28;20186;-85
2023/12/02 00:30:11;;;;;;;122.60;48.57;;;;;;;-141.97;100.00;46112.44;5013450;28;20185;-85
2023/12/02 00:32:36;;;;;;;122.43;52.03;;;;;;;-141.97;100.00;46269.97;5014683;28;20169;-85
2023/12/02 00:35:02;;;;;;;128.73;48.53;;;;;;;-141.97;100.00;46623.53;5014451;28;20525;-85
2023/12/02 00:37:28;;;;;;;121.00;52.27;;;;;;;-141.97;100.00;46216.19;5014584;28;20258;-85
2023/12/02 00:39:53;;;;;;;113.90;48.90;;;;;;;-141.97;100.00;46172.00;5015919;28;20163;-85
2023/12/02 00:42:18;;;;;;;118.60;51.87;;;;;;;-141.97;100.00;46554.34;5021202;28;20178;-84
2023/12/02 00:44:44;;;;;;;122.97;51.43;;;;;;;-141.97;100.00;46125.88;5015720;28;20228;-86
2023/12/02 00:47:09;;;;;;;118.90;52.07;;;;;;;-141.97;100.00;46254.59;5014492;28;20260;-85
2023/12/02 00:49:35;;;;;;;134.57;53.73;;;;;;;-141.97;100.00;46254.59;5015578;28;20221;-85
2023/12/02 00:52:00;;;;;;;119.87;52.23;;;;;;;-141.97;100.00;46654.28;5014345;28;20721;-85
2023/12/02 00:54:26;;;;;;;125.00;52.13;;;;;;;-141.97;100.00;46450.59;5012614;28;20273;-85
2023/12/02 00:56:51;;;;;;;132.30;57.03;;;;;;;-141.97;100.00;46108.59;5014328;28;20158;-85
2023/12/02 00:59:17;;;;;;;129.30;53.70;;;;;;;-141.97;100.00;46233.47;5014049;28;20433;-84
2023/12/02 01:01:42;;;;;;;130.67;54.17;;;;;;;-141.97;100.00;46204.66;5013766;28;20190;-85
2023/12/02 01:04:08;;;;;;;121.87;50.80;;;;;;;-141.97;100.00;46204.66;5014015;28;20163;-84
2023/12/02 01:06:33;;;;;;;124.40;52.07;;;;;;;-141.97;100.00;46147.03;5013992;28;20241;-84
2023/12/02 01:08:58;;;;;;;117.40;52.13;;;;;;;-141.97;100.00;46590.84;5013742;28;20212;-85
2023/12/02 01:11:24;;;;;;;136.70;57.07;;;;;;;-141.97;100.00;46542.81;5014289;28;20557;-85
2023/12/02 01:13:49;;;;;;;132.13;53.73;;;;;;;-141.97;100.00;46269.97;5013808;28;20269;-84
2023/12/02 01:16:15;;;;;;;125.87;54.57;;;;;;;-141.97;100.00;46268.06;4989086;28;20265;-84
2023/12/02 01:18:40;;;;;;;122.33;52.07;;;;;;;-141.97;100.00;46204.66;4975442;28;20196;-84
2023/12/02 01:21:06;;;;;;;123.10;51.10;;;;;;;-141.97;100.00;46364.13;4995011;28;20183;-83
2023/12/02 01:23:31;;;;;;;103.30;42.37;;;;;;;-141.97;100.00;46673.47;4993513;28;20183;-85
2023/12/02 01:25:56;;;;;;;142.60;54.53;;;;;;;-141.97;100.00;46162.38;4974987;28;20386;-83
2023/12/02 01:28:22;;;;;;;136.20;57.50;;;;;;;-141.97;100.00;46325.69;4992241;28;20191;-84
2023/12/02 01:30:47;;;;;;;135.90;56.20;;;;;;;-141.97;100.00;46585.09;4991383;28;20166;-85
2023/12/02 01:33:13;;;;;;;161.37;66.37;;;;;;;-141.97;100.00;46289.19;4991652;28;20572;-85
2023/12/02 01:35:38;;;;;;;146.73;58.57;;;;;;;-141.97;100.00;46050.97;4974908;28;20306;-84
2023/12/02 01:38:03;;;;;;;136.23;54.03;;;;;;;-141.97;100.00;46145.09;4992984;28;20219;-85
2023/12/02 01:40:29;;;;;;;142.03;57.90;;;;;;;-141.97;100.00;46273.81;4992118;28;20198;-84
2023/12/02 01:42:54;;;;;;;135.13;54.40;;;;;;;-141.97;100.00;46269.97;4991693;28;20266;-84
2023/12/02 01:45:20;;;;;;;146.17;57.80;;;;;;;-141.97;100.00;46271.91;4992082;28;20591;-85
2023/12/02 01:47:46;;;;;;;153.60;66.00;;;;;;;-141.97;100.00;46246.94;4974752;28;20163;-86
2023/12/02 01:50:13;;;;;;;142.57;60.67;;;;;;;-141.97;100.00;46260.38;5007429;28;20194;-84
2023/12/02 01:52:38;;;;;;;141.30;56.80;;;;;;;-141.97;100.00;46173.91;5013407;28;20476;-85
2023/12/02 01:55:04;;;;;;;131.83;55.07;;;;;;;-141.97;100.00;46248.84;5013307;28;20798;-84
2023/12/02 01:57:31;;;;;;;139.53;55.67;;;;;;;-141.97;100.00;46673.47;5013677;28;20166;-85
2023/12/02 01:59:56;;;;;;;135.23;53.43;;;;;;;-141.97;100.00;46254.59;5012679;28;20414;-84
2023/12/02 02:02:22;;;;;;;140.53;56.87;;;;;;;-141.97;100.00;46108.59;5013341;28;21020;-85
2023/12/02 02:04:48;;;;;;;138.63;56.27;;;;;;;-141.97;100.00;46490.94;5013352;28;20159;-84
2023/12/02 02:07:14;;;;;;;129.63;54.20;;;;;;;-141.97;100.00;46081.69;5013558;28;20186;-84
2023/12/02 02:09:47;;;;;;;128.07;54.63;;;;;;;-141.97;100.00;46269.97;5013202;28;20829;-84
2023/12/02 02:12:13;;;;;;;135.60;56.20;;;;;;;-141.97;100.00;46252.69;5013199;28;20213;-84
2023/12/02 02:14:38;;;;;;;135.03;55.50;;;;;;;-141.97;100.00;46177.75;5017011;28;20457;-83
2023/12/02 02:17:04;;;;;;;140.83;57.53;;;;;;;-141.97;100.00;46210.41;5018798;28;20406;-85
2023/12/02 02:19:31;;;;;;;172.37;68.20;;;;;;;-141.97;100.00;46254.59;5013484;28;20166;-83
2023/12/02 02:21:57;;;;;;;162.90;69.53;;;;;;;-141.97;100.00;46268.06;5012920;28;20742;-84
2023/12/02 02:24:22;;;;;;;166.87;67.40;;;;;;;-141.97;100.00;46246.94;5012671;28;20473;-84
2023/12/02 02:26:48;;;;;;;171.80;66.90;;;;;;;-141.97;100.00;46252.69;5012103;28;20171;-84
2023/12/02 02:29:13;;;;;;;146.37;61.90;;;;;;;-141.97;100.00;46565.88;5011843;28;20553;-83
2023/12/02 02:31:38;;;;;;;131.97;53.33;;;;;;;-141.97;100.00;46465.97;5012529;28;20170;-85
2023/12/02 02:34:04;;;;;;;151.73;62.13;;;;;;;-141.97;100.00;46027.91;5015855;28;20179;-85
2023/12/02 02:36:29;;;;;;;138.13;58.43;;;;;;;-141.97;100.00;46131.66;5038098;28;20163;-86
2023/12/02 02:38:54;;;;;;;140.17;59.13;;;;;;;-141.97;100.00;46095.16;5037198;28;20182;-85
2023/12/02 02:41:20;;;;;;;127.30;55.40;;;;;;;-141.97;100.00;46125.88;5019468;28;20177;-85
2023/12/02 02:43:46;;;;;;;128.37;55.00;;;;;;;-141.97;100.00;46200.81;5012294;28;20552;-86
2023/12/02 02:46:13;;;;;;;134.30;56.63;;;;;;;-141.97;100.00;46196.97;5011384;28;20241;-86
2023/12/02 02:48:38;;;;;;;144.27;60.10;;;;;;;-141.97;100.00;46152.78;5012200;28;20410;-85
2023/12/02 02:51:04;;;;;;;154.23;61.13;;;;;;;-141.97;100.00;46425.63;5012785;28;20829;-85
2023/12/02 02:53:29;;;;;;;119.30;49.53;;;;;;;-141.97;100.00;46221.94;5011215;28;20198;-86
2023/12/02 02:55:55;;;;;;;119.17;49.80;;;;;;;-141.97;100.00;46177.75;5012614;28;20174;-84
2023/12/02 02:58:20;;;;;;;108.20;46.13;;;;;;;-141.97;100.00;46273.81;5010844;28;20174;-85
2023/12/02 03:00:46;;;;;;;101.43;43.13;;;;;;;-141.97;100.00;46054.81;5012204;28;20309;-86
2023/12/02 03:03:12;;;;;;;93.70;42.77;;;;;;;-141.97;100.00;46187.38;5011670;28;20178;-85
2023/12/02 03:05:38;;;;;;;100.83;41.57;;;;;;;-141.97;100.00;46700.38;5010570;28;20540;-85
2023/12/02 03:08:03;;;;;;;85.97;37.87;;;;;;;-141.97;100.00;46202.72;5010712;28;20423;-85
2023/12/02 03:10:29;;;;;;;93.07;36.30;;;;;;;-141.97;100.00;46262.28;5011714;28;20178;-86
2023/12/02 03:12:54;;;;;;;79.83;36.20;;;;;;;-141.97;100.00;46093.22;5011283;28;20296;-85
2023/12/02 03:15:20;;;;;;;77.60;36.83;;;;;;;-141.97;100.00;46612.00;5013894;28;20186;-86
2023/12/02 03:17:45;;;;;;;84.43;37.40;;;;;;;-141.97;100.00;46085.53;5010268;28;20620;-86
2023/12/02 03:20:11;;;;;;;81.53;37.40;;;;;;;-141.97;100.00;46271.91;5012604;28;20174;-85
2023/12/02 03:22:37;;;;;;;80.43;37.30;;;;;;;-141.97;100.00;46099.00;5017852;28;20167;-85
2023/12/02 03:25:02;;;;;;;80.43;37.53;;;;;;;-141.97;100.00;46223.88;5014910;28;20163;-83
2023/12/02 03:27:28;;;;;;;84.10;38.03;;;;;;;-141.97;100.00;46262.28;5014744;28;20166;-83
2023/12/02 03:29:53;;;;;;;95.40;43.03;;;;;;;-141.97;100.00;46289.19;5019927;28;20235;-85
2023/12/02 03:32:19;;;;;;;85.17;39.07;;;;;;;-141.97;100.00;46175.84;5025299;28;20173;-84
2023/12/02 03:34:44;;;;;;;97.17;43.67;;;;;;;-141.97;100.00;46245.00;5012517;28;20193;-84
2023/12/02 03:37:10;;;;;;;82.03;38.23;;;;;;;-141.97;100.00;46588.94;5013201;28;20165;-84
2023/12/02 03:39:36;;;;;;;83.57;37.87;;;;;;;-141.97;100.00;46521.69;5012763;28;20237;-84
2023/12/02 03:42:01;;;;;;;70.67;34.40;;;;;;;-141.97;100.00;46439.06;5011744;28;20163;-84
2023/12/02 03:44:27;;;;;;;68.00;32.83;;;;;;;-141.97;100.00;46114.34;5012139;28;20151;-85
2023/12/02 03:46:52;;;;;;;67.07;31.40;;;;;;;-141.97;100.00;46139.34;5011627;28;20167;-86
2023/12/02 03:49:18;;;;;;;65.33;30.90;;;;;;;-141.97;100.00;46133.56;5011568;28;20162;-85
2023/12/02 03:51:43;;;;;;;69.87;31.97;;;;;;;-141.97;100.00;46235.41;5011333;28;20663;-83
2023/12/02 03:54:09;;;;;;;71.43;35.30;;;;;;;-141.97;100.00;46264.22;5011727;28;20237;-86
2023/12/02 03:56:34;;;;;;;78.90;37.73;;;;;;;-141.97;100.00;46258.44;5027135;28;20196;-85
2023/12/02 03:58:59;;;;;;;77.20;36.77;;;;;;;-141.97;100.00;46072.09;5011795;28;20170;-84
2023/12/02 04:01:25;;;;;;;75.30;36.40;;;;;;;-141.97;100.00;46492.88;5011929;28;20592;-86
2023/12/02 04:03:51;;;;;;;77.10;35.13;;;;;;;-141.97;100.00;46010.63;5011759;28;20163;-86
2023/12/02 04:06:16;;;;;;;75.27;36.23;;;;;;;-141.97;100.00;46099.00;5010404;28;20242;-85
2023/12/02 04:08:42;;;;;;;82.03;38.73;;;;;;;-141.97;100.00;46285.34;5014164;28;20646;-86
2023/12/02 04:11:08;;;;;;;70.73;30.17;;;;;;;-141.97;100.00;46143.19;5012205;28;20194;-86
2023/12/02 04:13:34;;;;;;;80.90;36.27;;;;;;;-141.97;100.00;46162.38;5011339;28;20190;-87
2023/12/02 04:16:00;;;;;;;77.27;36.50;;;;;;;-141.97;100.00;46246.94;5011583;28;20408;-86
2023/12/02 04:18:25;;;;;;;83.50;38.50;;;;;;;-141.97;100.00;46277.66;5012546;28;20605;-86
2023/12/02 04:20:51;;;;;;;78.53;38.80;;;;;;;-141.97;100.00;46685.00;5011244;28;20546;-85
2023/12/02 04:23:16;;;;;;;95.87;41.40;;;;;;;-141.97;100.00;46223.88;5011382;28;20167;-86
2023/12/02 04:25:41;;;;;;;84.53;40.40;;;;;;;-141.97;100.00;46058.63;5013039;28;20615;-87
2023/12/02 04:28:10;;;;;;;95.80;40.60;;;;;;;-141.97;100.00;46118.19;5029014;28;20173;-85
2023/12/02 04:30:35;;;;;;;176.53;78.87;;;;;;;-141.97;100.00;46039.44;5036251;28;20155;-86
2023/12/02 04:33:01;;;;;;;162.63;68.97;;;;;;;-141.97;100.00;46216.19;5018705;28;20449;-87
2023/12/02 04:35:26;;;;;;;161.10;69.13;;;;;;;-141.97;100.00;46273.81;5012901;28;20185;-86
2023/12/02 04:37:51;;;;;;;133.47;56.07;;;;;;;-141.97;100.00;46135.50;5012881;28;20593;-87
2023/12/02 04:40:17;;;;;;;114.07;51.47;;;;;;;-141.97;100.00;46052.88;5010612;28;20241;-86
2023/12/02 04:42:42;;;;;;;109.30;47.90;;;;;;;-141.97;100.00;46266.13;5011178;28;20229;-86
2023/12/02 04:45:09;;;;;;;98.57;44.43;;;;;;;-141.97;100.00;46273.81;5011286;28;20222;-85
2023/12/02 04:47:36;;;;;;;100.83;45.60;;;;;;;-141.97;100.00;46285.34;5010988;28;20654;-86
2023/12/02 04:50:03;;;;;;;98.67;45.27;;;;;;;-141.97;100.00;46694.63;5010914;28;20404;-85
2023/12/02 04:52:29;;;;;;;100.37;45.73;;;;;;;-141.97;100.00;46120.13;5013359;28;20534;-84
2023/12/02 04:54:54;;;;;;;110.50;47.50;;;;;;;-141.97;100.00;46145.09;5013471;28;20945;-87
2023/12/02 04:57:20;;;;;;;131.93;57.70;;;;;;;-141.97;100.00;46514.00;5013220;28;20186;-87
2023/12/02 04:59:45;;;;;;;161.30;70.17;;;;;;;-141.97;100.00;46335.31;5014432;28;20171;-86
2023/12/02 05:02:11;;;;;;;139.23;57.57;;;;;;;-141.97;100.00;46592.78;5017170;28;20189;-86
2023/12/02 05:04:36;;;;;;;135.20;60.03;;;;;;;-141.97;100.00;46281.50;5025091;28;20163;-85
2023/12/02 05:07:02;;;;;;;130.90;55.37;;;;;;;-141.97;100.00;46454.44;5036959;28;20181;-86
2023/12/02 05:09:27;;;;;;;129.03;56.90;;;;;;;-141.97;100.00;46160.47;5029503;28;20223;-86
2023/12/02 05:11:52;;;;;;;186.33;79.17;;;;;;;-141.97;100.00;46145.09;5015637;28;20313;-86
2023/12/02 05:14:18;;;;;;;160.77;67.53;;;;;;;-141.97;100.00;46202.72;5015066;28;20289;-86
2023/12/02 05:16:43;;;;;;;255.83;99.80;;;;;;;-141.97;100.00;46458.28;5013076;28;20248;-86
2023/12/02 05:19:09;;;;;;;350.03;137.37;;;;;;;-141.97;100.00;46608.16;5015358;28;20171;-86
2023/12/02 05:21:38;;;;;;;273.60;108.80;;;;;;;-141.97;100.00;46148.94;5016136;28;20178;-87
2023/12/02 05:24:04;;;;;;;253.23;100.80;;;;;;;-141.97;100.00;46289.19;5015229;28;20186;-87
2023/12/02 05:26:29;;;;;;;175.63;76.43;;;;;;;-141.97;100.00;46431.38;5019976;28;20476;-87
2023/12/02 05:28:55;;;;;;;119.67;50.40;;;;;;;-141.97;100.00;46262.28;5023400;28;20191;-87
2023/12/02 05:31:21;;;;;;;111.10;47.63;;;;;;;-141.97;100.00;46283.44;5019907;28;20194;-88
2023/12/02 05:33:47;;;;;;;94.00;40.00;;;;;;;-141.97;100.00;46281.50;5016581;28;20183;-86
2023/12/02 05:36:12;;;;;;;90.33;38.00;;;;;;;-141.97;100.00;46264.22;5018103;28;20420;-86
2023/12/02 05:38:38;;;;;;;94.97;40.27;;;;;;;-141.97;100.00;46143.19;5016034;28;20171;-86
2023/12/02 05:41:04;;;;;;;78.93;34.23;;;;;;;-141.97;100.00;46279.59;5016669;28;20631;-86
2023/12/02 05:43:30;;;;;;;89.13;40.40;;;;;;;-141.97;100.00;46181.59;5016081;28;20257;-86
2023/12/02 05:45:56;;;;;;;88.83;41.07;;;;;;;-141.97;100.00;46266.13;5016478;28;20418;-86
2023/12/02 05:48:21;;;;;;;96.97;43.80;;;;;;;-141.97;100.00;46220.03;5022080;28;20780;-87
2023/12/02 05:50:47;;;;;;;93.77;40.37;;;;;;;-141.97;100.00;46537.06;5019598;28;20167;-87
2023/12/02 05:53:12;;;;;;;100.20;43.20;;;;;;;-141.97;100.00;46673.47;5021996;28;20194;-86
2023/12/02 05:55:38;;;;;;;124.27;51.37;;;;;;;-141.97;100.00;46264.22;5019382;28;20185;-86
2023/12/02 05:58:03;;;;;;;117.10;49.10;;;;;;;-141.97;100.00;46281.50;5014889;28;20254;-86
2023/12/02 06:00:28;;;;;;;180.00;77.50;;;;;;;-141.97;100.00;46089.38;5013686;28;20565;-87
2023/12/02 06:02:54;;;;;;;199.57;84.90;;;;;;;-141.97;100.00;46235.41;5015049;28;20174;-85
2023/12/02 06:05:20;;;;;;;187.00;80.60;;;;;;;-141.97;100.00;46093.22;5016005;28;20685;-86
2023/12/02 06:07:45;;;;;;;166.43;69.73;;;;;;;-141.97;100.00;46258.44;5015697;28;20206;-86
2023/12/02 06:10:11;;;;;;;178.13;79.43;;;;;;;-141.97;100.00;46050.97;5019343;28;20815;-88
2023/12/02 06:12:37;;;;;;;174.93;75.90;;;;;;;-141.97;100.00;46139.34;5018703;28;20600;-87
2023/12/02 06:15:03;;;;;;;155.73;66.87;;;;;;;-141.97;100.00;46285.34;5017854;28;20661;-88
2023/12/02 06:17:29;;;;;;;134.47;57.50;;;;;;;-141.97;100.00;46141.25;5017038;28;20449;-88
2023/12/02 06:19:55;;;;;;;125.20;53.73;;;;;;;-141.97;100.00;46400.63;5016096;28;20417;-89
2023/12/02 06:22:20;;;;;;;123.43;53.20;;;;;;;-141.97;100.00;46089.38;5015451;28;20627;-87
2023/12/02 06:24:45;;;;;;;101.73;45.23;;;;;;;-141.97;100.00;46122.03;5017815;28;20647;-87
2023/12/02 06:27:11;;;;;;;105.00;47.90;;;;;;;-141.97;100.00;46642.75;5015436;28;20202;-89
2023/12/02 06:29:37;;;;;;;89.73;42.80;;;;;;;-141.97;100.00;46540.91;5015667;28;20569;-88
2023/12/02 06:32:03;;;;;;;107.80;50.73;;;;;;;-141.97;100.00;46266.13;5021400;28;20177;-88
2023/12/02 06:34:30;;;;;;;106.03;48.07;;;;;;;-141.97;100.00;46175.84;5014545;28;20302;-88
2023/12/02 06:36:55;;;;;;;139.50;59.80;;;;;;;-141.97;100.00;46273.81;5014613;28;20454;-88
2023/12/02 06:39:21;;;;;;;121.67;55.67;;;;;;;-141.97;100.00;46147.03;5014821;28;20413;-87
2023/12/02 06:41:46;;;;;;;290.37;116.63;;;;;;;-141.97;100.00;46252.69;5016230;28;20220;-87
2023/12/02 06:44:12;;;;;;;248.77;109.13;;;;;;;-141.97;100.00;46039.44;5014801;28;20167;-87
2023/12/02 06:46:37;;;;;;;227.47;100.43;;;;;;;-141.97;100.00;46254.59;5016759;28;20163;-87
2023/12/02 06:49:04;;;;;;;288.10;126.90;;;;;;;-141.97;100.00;46047.13;5014677;28;20171;-89
2023/12/02 06:51:29;;;;;;;267.83;122.63;;;;;;;-141.97;100.00;46143.19;5014098;28;20226;-87
2023/12/02 06:53:58;;;;;;;262.93;118.73;;;;;;;-141.97;100.00;46492.88;5013058;28;20461;-88
2023/12/02 06:56:25;;;;;;;257.73;122.90;;;;;;;-141.97;100.00;46231.56;5017863;28;20167;-89
2023/12/02 06:58:51;;;;;;;294.77;138.43;;;;;;;-141.97;100.00;46412.16;5015319;28;20851;-87
2023/12/02 07:01:26;;;;;;;205.77;94.73;;;;;;;-141.97;100.00;46239.25;5014660;28;20493;-83
2023/12/02 07:03:56;;;;;;;229.67;87.07;;;;;;;-141.97;100.00;46214.25;5012994;28;20524;-87
2023/12/02 07:06:22;;;;;;;178.93;78.37;;;;;;;-141.97;100.00;46227.72;5013147;28;20457;-89
2023/12/02 07:08:48;;;;;;;133.67;61.07;;;;;;;-141.97;100.00;46141.25;5012873;28;20429;-89
2023/12/02 07:11:14;;;;;;;121.43;57.67;;;;;;;-141.97;100.00;46638.91;5011931;28;20174;-87
2023/12/02 07:13:40;;;;;;;160.93;71.37;;;;;;;-141.97;100.00;46077.84;5017633;28;20883;-89
2023/12/02 07:16:06;;;;;;;108.30;45.73;;;;;;;-141.97;100.00;46072.09;5014106;28;20627;-88
2023/12/02 07:18:32;;;;;;;89.23;41.50;;;;;;;-141.97;100.00;46079.78;5013857;28;20178;-88
2023/12/02 07:20:57;;;;;;;86.17;40.30;;;;;;;-141.97;100.00;46212.34;5013975;28;20409;-87
2023/12/02 07:23:25;;;;;;;79.00;38.23;;;;;;;-141.97;100.00;46154.69;5015528;28;20174;-89
2023/12/02 07:25:54;;;;;;;73.80;36.40;;;;;;;-141.97;100.00;45901.09;5013294;28;20155;-88
2023/12/02 07:28:19;;;;;;;69.00;34.83;;;;;;;-141.97;100.00;46594.69;5012974;28;20421;-89
2023/12/02 07:30:45;;;;;;;71.40;33.47;;;;;;;-141.97;100.00;46097.06;5020209;28;20406;-86
2023/12/02 07:33:10;;;;;;;68.60;35.97;;;;;;;-141.97;100.00;46227.72;5018498;28;20194;-88
2023/12/02 07:35:36;;;;;;;315.17;102.53;;;;;;;-141.97;100.00;46062.47;5017093;28;20175;-88
2023/12/02 07:40:33;;;;;;;121.47;55.80;;;;;;;-141.97;100.00;46097.06;5005814;28;20246;-90
2023/12/02 07:42:58;;;;;;;95.90;45.43;;;;;;;-141.97;100.00;46235.41;4995938;28;20439;-86
2023/12/02 07:45:23;;;;;;;115.80;49.77;;;;;;;-141.97;100.00;46010.63;4994252;28;20269;-90
2023/12/02 07:47:49;;;;;;;122.80;53.67;;;;;;;-141.97;100.00;46156.63;4996409;28;20703;-88
2023/12/02 07:50:15;;;;;;;121.17;54.27;;;;;;;-141.97;100.00;46093.22;4996405;28;20230;-88
2023/12/02 07:52:41;;;;;;;204.10;81.87;;;;;;;-141.97;100.00;46485.19;4996354;28;20175;-88
2023/12/02 07:55:07;;;;;;;328.47;120.83;;;;;;;-141.97;100.00;46002.94;4995735;28;20477;-88
2023/12/02 07:57:32;;;;;;;299.63;109.87;;;;;;;-141.97;100.00;46423.69;4994524;28;20175;-87
2023/12/02 07:59:58;;;;;;;264.93;116.90;;;;;;;-141.97;100.00;45952.97;4997033;28;20573;-87
2023/12/02 08:02:24;;;;;;;220.43;101.63;;;;;;;-141.97;100.00;45974.09;4999309;28;20182;-90
2023/12/02 08:04:50;;;;;;;110.13;53.00;;;;;;;-141.97;100.00;46102.81;4995777;28;20594;-89
2023/12/02 08:07:15;;;;;;;86.73;41.87;;;;;;;-141.97;100.00;46346.84;4995650;28;20469;-88
2023/12/02 08:09:40;;;;;;;73.67;36.87;;;;;;;-141.97;100.00;46216.19;4994981;28;20167;-87
2023/12/02 08:12:06;;;;;;;75.03;38.83;;;;;;;-141.97;100.00;46008.69;4994715;28;20199;-88
2023/12/02 08:14:31;;;;;;;84.07;42.50;;;;;;;-141.97;100.00;45910.72;4992685;28;20257;-88
2023/12/02 08:16:57;;;;;;;72.07;37.10;;;;;;;-141.97;100.00;45997.16;4994146;28;20215;-88
2023/12/02 08:19:22;;;;;;;70.83;35.17;;;;;;;-141.97;100.00;45962.59;4993296;28;20538;-88
2023/12/02 08:21:48;;;;;;;81.57;41.37;;;;;;;-141.97;100.00;45989.47;4992074;28;20266;-88
2023/12/02 08:24:13;;;;;;;103.33;51.17;;;;;;;-141.97;100.00;46537.06;4993547;28;20171;-88
2023/12/02 08:26:39;;;;;;;79.60;38.73;;;;;;;-141.97;100.00;45979.88;4995209;28;20180;-88
2023/12/02 08:29:04;;;;;;;70.83;37.80;;;;;;;-141.97;100.00;46193.13;4998265;28;20171;-88
2023/12/02 08:31:32;;;;;;;50.00;21.80;;;;;;;-141.97;100.00;46081.69;4998741;28;20182;-88
2023/12/02 08:33:57;;;;;;;70.97;37.80;;;;;;;-141.97;100.00;46546.66;5013730;28;20342;-87
2023/12/02 08:36:22;;;;;;;70.30;35.40;;;;;;;-141.97;100.00;46502.47;4997691;28;20489;-89
2023/12/02 08:38:48;;;;;;;308.87;92.03;;;;;;;-141.97;100.00;46218.09;4996879;28;20262;-88
2023/12/02 08:41:14;;;;;;;90.53;44.47;;;;;;;-141.97;100.00;46218.09;4995420;28;20589;-89
2023/12/02 08:43:41;;;;;;;72.83;37.03;;;;;;;-141.97;100.00;46089.38;4995796;28;20649;-88
2023/12/02 08:46:21;;;;;;;93.20;45.70;;;;;;;-141.97;100.00;45918.41;4998869;28;20243;-88
2023/12/02 08:48:46;;;;;;;92.10;47.23;;;;;;;-141.97;100.00;46573.56;5055534;23;20563;-88
2023/12/02 08:51:12;;;;;;;98.27;47.50;;;;;;;-141.97;100.00;46185.44;5093309;22;20483;-87
2023/12/02 08:53:38;;;;;;;65.43;35.50;;;;;;;-141.97;100.00;46160.47;5058299;28;20194;-90
2023/12/02 08:58:35;;;;;;;71.00;35.37;;;;;;;-141.97;100.00;46548.59;5099385;22;20233;-89
2023/12/02 09:01:00;;;;;;;69.97;35.17;;;;;;;-141.97;100.00;46583.16;5052094;28;20476;-88
2023/12/02 09:03:26;;;;;;;71.23;35.00;;;;;;;-141.97;100.00;46187.38;5036950;28;20665;-87
2023/12/02 09:05:56;;;;;;;66.27;36.40;;;;;;;-141.97;100.00;46185.44;5035575;28;20617;-88
2023/12/02 09:08:22;;;;;;;70.93;34.93;;;;;;;-141.97;100.00;46554.34;5036201;28;20231;-87
2023/12/02 09:10:47;;;;;;;62.13;32.87;;;;;;;-141.97;100.00;46506.31;5035329;28;20257;-88
2023/12/02 09:13:42;;;;;;;64.53;32.47;;;;;;;-141.97;100.00;46183.53;5035712;28;20220;-87
2023/12/02 09:16:12;;;;;;;54.30;30.53;;;;;;;-141.97;100.00;46027.91;5015953;28;20564;-88
2023/12/02 09:18:37;;;;;;;56.67;31.27;;;;;;;-141.97;100.00;46175.84;4998535;28;20578;-89
2023/12/02 09:21:15;;;;;;;53.53;30.40;;;;;;;-141.97;100.00;46191.22;5013024;28;20195;-87
2023/12/02 09:23:42;;;;;;;54.73;28.63;;;;;;;-141.97;100.00;46139.34;5014474;28;20233;-88
2023/12/02 09:26:27;;;;;;;52.90;28.50;;;;;;;-141.97;100.00;46573.56;5013523;28;20227;-87
2023/12/02 09:28:56;;;;;;;102.03;49.17;;;;;;;-141.97;100.00;46062.47;5012980;28;20170;-87
2023/12/02 09:31:23;;;;;;;124.07;58.27;;;;;;;-141.97;100.00;46152.78;4997932;28;20187;-86
2023/12/02 09:34:00;;;;;;;108.93;51.67;;;;;;;-141.97;100.00;46173.91;5015153;28;20221;-88
2023/12/02 09:36:35;;;;;;;65.40;34.33;;;;;;;-141.97;100.00;45926.06;5013614;28;20162;-89
2023/12/02 09:39:26;;;;;;;389.50;180.80;;;;;;;-141.97;100.00;46154.69;5021356;28;20221;-88
2023/12/02 09:42:02;;;;;;;166.70;78.97;;;;;;;-141.97;100.00;46456.34;4937165;29;20189;-88
2023/12/02 09:44:42;;;;;;;104.87;52.30;;;;;;;-141.97;100.00;46141.25;4935693;29;20196;-89
2023/12/02 09:47:18;;;;;;;190.67;102.63;;;;;;;-141.97;100.00;46177.75;4922018;29;20188;-89
2023/12/02 09:50:05;;;;;;;90.93;47.53;;;;;;;-141.97;100.00;46160.47;4922454;29;20196;-87
2023/12/02 09:52:48;;;;;;;66.53;35.03;;;;;;;-141.97;100.00;46150.84;4947841;28;20275;-88
2023/12/02 09:55:28;;;;;;;65.30;33.57;;;;;;;-141.97;100.00;46145.09;4976495;28;20597;-89
2023/12/02 09:58:24;;;;;;;65.07;37.13;;;;;;;-141.97;100.00;46122.03;4977144;28;20227;-88
2023/12/02 10:01:21;;;;;;;75.60;39.97;;;;;;;-141.97;100.00;46024.06;4957436;29;20755;-88
2023/12/02 10:04:02;;;;;;;104.07;51.77;;;;;;;-141.97;100.00;46135.50;4958490;29;20192;-89
2023/12/02 10:06:47;;;;;;;238.37;105.17;;;;;;;-141.97;100.00;46156.63;4960441;29;20316;-89
2023/12/02 10:09:22;;;;;;;193.30;92.37;;;;;;;-141.97;100.00;46173.91;4966067;28;20173;-88
2023/12/02 10:11:47;;;;;;;165.43;71.57;;;;;;;-141.97;100.00;46143.19;4977724;28;20202;-88
2023/12/02 10:14:16;;;;;;;251.80;109.47;;;;;;;-141.97;100.00;46039.44;4972459;29;20260;-89
2023/12/02 10:16:45;;;;;;;204.53;88.57;;;;;;;-141.97;100.00;46004.84;4961530;29;20203;-90
2023/12/02 10:19:19;;;;;;;143.27;66.80;;;;;;;-141.97;100.00;46185.44;4998540;28;20209;-88
2023/12/02 10:21:53;;;;;;;126.47;57.73;;;;;;;-141.97;100.00;46024.06;5016742;28;20187;-88
2023/12/02 10:24:28;;;;;;;123.37;57.30;;;;;;;-141.97;100.00;45945.28;5016803;28;20177;-89
2023/12/02 10:27:00;;;;;;;167.50;84.90;;;;;;;-141.97;100.00;45931.84;5014161;28;20190;-89
2023/12/02 10:29:30;;;;;;;150.97;79.13;;;;;;;-141.97;100.00;45999.09;4998868;28;20643;-88
2023/12/02 10:32:26;;;;;;;153.87;76.23;;;;;;;-141.97;100.00;46139.34;5024409;28;20190;-89
2023/12/02 10:35:03;;;;;;;141.03;68.80;;;;;;;-141.97;100.00;46108.59;5038872;28;20190;-88
2023/12/02 10:37:36;;;;;;;112.50;59.93;;;;;;;-141.97;100.00;46070.16;5037593;28;20173;-89
2023/12/02 10:40:07;;;;;;;106.00;51.80;;;;;;;-141.97;100.00;46075.94;5036813;28;20190;-90
2023/12/02 10:43:03;;;;;;;96.23;47.17;;;;;;;-141.97;100.00;46137.41;5036049;28;20216;-88
2023/12/02 10:45:30;;;;;;;98.40;49.90;;;;;;;-141.97;100.00;46417.94;5037431;28;20162;-88
2023/12/02 10:47:58;;;;;;;108.60;56.97;;;;;;;-141.97;100.00;46135.50;5041524;28;20654;-89
2023/12/02 10:50:25;;;;;;;80.97;42.00;;;;;;;-141.97;100.00;46437.13;5041358;28;20548;-90
2023/12/02 10:53:06;;;;;;;86.00;45.83;;;;;;;-141.97;100.00;46477.50;5037586;28;20178;-89
2023/12/02 10:55:37;;;;;;;88.10;47.87;;;;;;;-141.97;100.00;45954.91;5034647;28;20169;-89